LEAB/ABC METAR and TAF weather

Enter ICAO airport designator
Station Type Date Time Source
LEAB METAR 2020/01/27 13:00 UTC NOAA

LEAB 271300Z 30009KT 9999 FEW025 SCT035 09/04 Q1024 NOSIG


Station Type Date Time Source
LEAB Decoded METAR 2020/01/27 13:00 UTC NOAA

Albacete / Los Llanos, Spain (LEAB) 38-57N 001-51W 704M
Jan 27, 2020 - 08:00 AM EST / 2020.01.27 1300 UTC
Wind: from the WNW (300 degrees) at 10 MPH (9 KT):0
Visibility: greater than 7 mile(s):0
Sky conditions: partly cloudy
Temperature: 48 F (9 C)
Dew Point: 39 F (4 C)
Relative Humidity: 70%
Pressure (altimeter): 30.24 in. Hg (1024 hPa)
ob: LEAB 271300Z 30009KT 9999 FEW025 SCT035 09/04 Q1024 NOSIG
cycle: 13

Station Type Date Time Source
LEAB TAF 2018/04/26 18:51 UTC NOAA

TAF
AMD LEAB 261747Z 2618/2706 16012KT 9999 FEW040
BECMG 2704/2706 27015KT
TEMPO 2704/2706 BKN014

Example: see airport list